BAF605 EGVN-EBMB
Flight info
| Callsign | BAF605 |
|---|---|
| Flight time | 1h 7m |
| Altitude | 29000 |
| Route | CONKO L18 NUCHU L607 BIG UL9 KONAN UL607 KOK |
| Aircraft | A400/H-SDE2E3FGHIJ4J5M1RWXY/LB1D1 |
Departure
| Time | 2026-04-23 18:38 |
|---|---|
| Airport | RAF Brize Norton (EGVN) |
Arrival
| Time | 2026-04-23 19:45 |
|---|---|
| Airport | Melsbroek Air Base (EBMB) |
| Time | Latitude | Longitude | Altitude | Speed | Heading |
|---|---|---|---|---|---|
| 2026-04-23 18:20 | 51.75608 | -1.57337 | 274 ft | 0 kts | 288° |
| 2026-04-23 18:32 | 51.75611 | -1.57352 | 274 ft | 4 kts | 288° |
| 2026-04-23 18:32 | 51.75646 | -1.57404 | 275 ft | 9 kts | 359° |
| 2026-04-23 18:32 | 51.75713 | -1.57370 | 276 ft | 11 kts | 18° |
| 2026-04-23 18:32 | 51.75801 | -1.57325 | 278 ft | 15 kts | 18° |
| 2026-04-23 18:33 | 51.75905 | -1.57288 | 273 ft | 14 kts | 338° |
| 2026-04-23 18:33 | 51.75933 | -1.57422 | 274 ft | 15 kts | 265° |
| 2026-04-23 18:33 | 51.75849 | -1.57539 | 275 ft | 20 kts | 198° |
| 2026-04-23 18:33 | 51.75704 | -1.57614 | 278 ft | 24 kts | 196° |
| 2026-04-23 18:34 | 51.75542 | -1.57713 | 278 ft | 23 kts | 206° |
| 2026-04-23 18:34 | 51.75391 | -1.57838 | 282 ft | 26 kts | 210° |
| 2026-04-23 18:34 | 51.75221 | -1.57988 | 281 ft | 29 kts | 207° |
| 2026-04-23 18:34 | 51.75037 | -1.58146 | 287 ft | 30 kts | 208° |
| 2026-04-23 18:35 | 51.74861 | -1.58297 | 284 ft | 28 kts | 207° |
| 2026-04-23 18:35 | 51.74696 | -1.58439 | 286 ft | 26 kts | 210° |
| 2026-04-23 18:35 | 51.74627 | -1.58642 | 288 ft | 21 kts | 254° |
| 2026-04-23 18:35 | 51.74584 | -1.58875 | 293 ft | 23 kts | 253° |
| 2026-04-23 18:36 | 51.74538 | -1.59125 | 295 ft | 24 kts | 254° |
| 2026-04-23 18:36 | 51.74488 | -1.59396 | 296 ft | 26 kts | 253° |
| 2026-04-23 18:36 | 51.74436 | -1.59676 | 298 ft | 27 kts | 253° |
| 2026-04-23 18:36 | 51.74468 | -1.59951 | 300 ft | 26 kts | 299° |
| 2026-04-23 18:37 | 51.74605 | -1.60094 | 300 ft | 23 kts | 346° |
| 2026-04-23 18:37 | 51.74693 | -1.59960 | 301 ft | 19 kts | 73° |
| 2026-04-23 18:37 | 51.74810 | -1.59327 | 296 ft | 107 kts | 73° |
| 2026-04-23 18:37 | 51.75060 | -1.57823 | 522 ft | 160 kts | 75° |
| 2026-04-23 18:38 | 51.75361 | -1.55948 | 1156 ft | 181 kts | 74° |
| 2026-04-23 18:38 | 51.76169 | -1.54320 | 1817 ft | 208 kts | 29° |
| 2026-04-23 18:38 | 51.77686 | -1.54229 | 2551 ft | 240 kts | 342° |
| 2026-04-23 18:38 | 51.78965 | -1.56082 | 3279 ft | 263 kts | 298° |
| 2026-04-23 18:39 | 51.79211 | -1.59031 | 4011 ft | 274 kts | 255° |
| 2026-04-23 18:39 | 51.78230 | -1.61628 | 4777 ft | 274 kts | 214° |
| 2026-04-23 18:39 | 51.76619 | -1.63238 | 5740 ft | 272 kts | 207° |
| 2026-04-23 18:39 | 51.75088 | -1.65067 | 6706 ft | 279 kts | 226° |
| 2026-04-23 18:40 | 51.74286 | -1.67914 | 7625 ft | 287 kts | 264° |
| 2026-04-23 18:40 | 51.74695 | -1.71016 | 8582 ft | 287 kts | 300° |
| 2026-04-23 18:40 | 51.75742 | -1.73708 | 9552 ft | 289 kts | 304° |
| 2026-04-23 18:40 | 51.76762 | -1.76541 | 10421 ft | 297 kts | 294° |
| 2026-04-23 18:41 | 51.77297 | -1.79837 | 11052 ft | 311 kts | 277° |
| 2026-04-23 18:41 | 51.77243 | -1.83374 | 11724 ft | 319 kts | 259° |
| 2026-04-23 18:41 | 51.76522 | -1.86775 | 12460 ft | 323 kts | 240° |
| 2026-04-23 18:41 | 51.75173 | -1.89681 | 13242 ft | 324 kts | 221° |
| 2026-04-23 18:42 | 51.73413 | -1.91953 | 14018 ft | 326 kts | 212° |
| 2026-04-23 18:42 | 51.71535 | -1.94036 | 14745 ft | 330 kts | 211° |
| 2026-04-23 18:42 | 51.69616 | -1.96126 | 15457 ft | 334 kts | 211° |
| 2026-04-23 18:42 | 51.67678 | -1.98248 | 16206 ft | 337 kts | 212° |
| 2026-04-23 18:43 | 51.65730 | -2.00390 | 16946 ft | 340 kts | 211° |
| 2026-04-23 18:43 | 51.63701 | -2.02261 | 17675 ft | 342 kts | 201° |
| 2026-04-23 18:43 | 51.61440 | -2.03420 | 18419 ft | 342 kts | 187° |
| 2026-04-23 18:43 | 51.59069 | -2.03637 | 19085 ft | 342 kts | 173° |
| 2026-04-23 18:44 | 51.56716 | -2.02991 | 19696 ft | 344 kts | 164° |
| 2026-04-23 18:44 | 51.54425 | -2.01781 | 20307 ft | 346 kts | 153° |
| 2026-04-23 18:44 | 51.52348 | -1.99807 | 20918 ft | 348 kts | 140° |
| 2026-04-23 18:44 | 51.50627 | -1.97162 | 21538 ft | 348 kts | 127° |
| 2026-04-23 18:45 | 51.49322 | -1.93880 | 22172 ft | 349 kts | 113° |
| 2026-04-23 18:45 | 51.48549 | -1.90177 | 22791 ft | 351 kts | 101° |
| 2026-04-23 18:45 | 51.48099 | -1.86315 | 23411 ft | 354 kts | 96° |
| 2026-04-23 18:45 | 51.47789 | -1.82381 | 24025 ft | 357 kts | 94° |
| 2026-04-23 18:46 | 51.47538 | -1.78389 | 24514 ft | 361 kts | 94° |
| 2026-04-23 18:46 | 51.47300 | -1.74352 | 25009 ft | 364 kts | 94° |
| 2026-04-23 18:46 | 51.47051 | -1.70324 | 25457 ft | 368 kts | 94° |
| 2026-04-23 18:46 | 51.46652 | -1.66242 | 25891 ft | 372 kts | 98° |
| 2026-04-23 18:47 | 51.46164 | -1.62152 | 26328 ft | 375 kts | 99° |
| 2026-04-23 18:47 | 51.45629 | -1.58027 | 26747 ft | 379 kts | 100° |
| 2026-04-23 18:47 | 51.45068 | -1.53889 | 27128 ft | 382 kts | 100° |
| 2026-04-23 18:47 | 51.44488 | -1.49700 | 27513 ft | 385 kts | 100° |
| 2026-04-23 18:48 | 51.43910 | -1.45555 | 27903 ft | 387 kts | 101° |
| 2026-04-23 18:48 | 51.43320 | -1.41326 | 28261 ft | 390 kts | 101° |
| 2026-04-23 18:48 | 51.42728 | -1.37081 | 28623 ft | 392 kts | 101° |
| 2026-04-23 18:48 | 51.42133 | -1.32799 | 28971 ft | 394 kts | 101° |
| 2026-04-23 18:49 | 51.41533 | -1.28491 | 29287 ft | 395 kts | 101° |
| 2026-04-23 18:49 | 51.40330 | -1.19854 | 29368 ft | 397 kts | 101° |
| 2026-04-23 18:50 | 51.39578 | -1.12625 | 29370 ft | 395 kts | 96° |
| 2026-04-23 18:50 | 51.38980 | -1.02459 | 29368 ft | 393 kts | 95° |
| 2026-04-23 18:51 | 51.38542 | -0.93738 | 29375 ft | 391 kts | 96° |
| 2026-04-23 18:51 | 51.38105 | -0.85110 | 29370 ft | 391 kts | 96° |
| 2026-04-23 18:52 | 51.37649 | -0.76430 | 29374 ft | 391 kts | 97° |
| 2026-04-23 18:52 | 51.37186 | -0.67813 | 29377 ft | 390 kts | 97° |
| 2026-04-23 18:53 | 51.36714 | -0.59177 | 29370 ft | 389 kts | 98° |
| 2026-04-23 18:53 | 51.36237 | -0.50550 | 29372 ft | 387 kts | 98° |
| 2026-04-23 18:54 | 51.35756 | -0.41983 | 29372 ft | 386 kts | 98° |
| 2026-04-23 18:54 | 51.35270 | -0.33434 | 29378 ft | 385 kts | 99° |
| 2026-04-23 18:55 | 51.34780 | -0.24914 | 29394 ft | 383 kts | 99° |
| 2026-04-23 18:55 | 51.34288 | -0.16476 | 29399 ft | 382 kts | 100° |
| 2026-04-23 18:56 | 51.33871 | -0.09402 | 29404 ft | 381 kts | 100° |
| 2026-04-23 18:56 | 51.33286 | 0.00404 | 29400 ft | 380 kts | 101° |
| 2026-04-23 18:57 | 51.32470 | 0.08651 | 29403 ft | 376 kts | 105° |
| 2026-04-23 18:57 | 51.31491 | 0.16868 | 29399 ft | 376 kts | 106° |
| 2026-04-23 18:58 | 51.30477 | 0.25064 | 29398 ft | 376 kts | 106° |
| 2026-04-23 18:58 | 51.29464 | 0.33211 | 29446 ft | 375 kts | 106° |
| 2026-04-23 18:59 | 51.28446 | 0.41411 | 29447 ft | 375 kts | 106° |
| 2026-04-23 18:59 | 51.27427 | 0.49597 | 29451 ft | 375 kts | 106° |
| 2026-04-23 19:00 | 51.26408 | 0.57734 | 29446 ft | 375 kts | 107° |
| 2026-04-23 19:00 | 51.25371 | 0.65919 | 29434 ft | 375 kts | 107° |
| 2026-04-23 19:01 | 51.24328 | 0.74094 | 29419 ft | 376 kts | 107° |
| 2026-04-23 19:01 | 51.23285 | 0.82243 | 29417 ft | 376 kts | 107° |
| 2026-04-23 19:02 | 51.22411 | 0.89048 | 29400 ft | 376 kts | 107° |
| 2026-04-23 19:02 | 51.21182 | 0.98559 | 29393 ft | 377 kts | 107° |
| 2026-04-23 19:03 | 51.20111 | 1.06787 | 29354 ft | 378 kts | 107° |
| 2026-04-23 19:03 | 51.19574 | 1.10893 | 29103 ft | 378 kts | 107° |
| 2026-04-23 19:03 | 51.19037 | 1.14999 | 28812 ft | 377 kts | 106° |
| 2026-04-23 19:03 | 51.18501 | 1.19082 | 28510 ft | 375 kts | 106° |
| 2026-04-23 19:04 | 51.17967 | 1.23142 | 28216 ft | 374 kts | 106° |
| 2026-04-23 19:04 | 51.17432 | 1.27189 | 27923 ft | 372 kts | 106° |
| 2026-04-23 19:04 | 51.16902 | 1.31186 | 27643 ft | 371 kts | 106° |
| 2026-04-23 19:04 | 51.16428 | 1.35211 | 27357 ft | 372 kts | 102° |
| 2026-04-23 19:05 | 51.16141 | 1.39320 | 27072 ft | 371 kts | 100° |
| 2026-04-23 19:05 | 51.15903 | 1.43425 | 26796 ft | 370 kts | 99° |
| 2026-04-23 19:05 | 51.15696 | 1.47487 | 26514 ft | 369 kts | 98° |
| 2026-04-23 19:05 | 51.15501 | 1.51596 | 26231 ft | 368 kts | 98° |
| 2026-04-23 19:06 | 51.15314 | 1.55612 | 25962 ft | 366 kts | 98° |
| 2026-04-23 19:06 | 51.15124 | 1.59667 | 25689 ft | 365 kts | 98° |
| 2026-04-23 19:06 | 51.14931 | 1.63709 | 25420 ft | 364 kts | 98° |
| 2026-04-23 19:06 | 51.14736 | 1.67722 | 25153 ft | 362 kts | 98° |
| 2026-04-23 19:07 | 51.14541 | 1.71668 | 24895 ft | 361 kts | 97° |
| 2026-04-23 19:07 | 51.14342 | 1.75655 | 24631 ft | 360 kts | 97° |
| 2026-04-23 19:07 | 51.14140 | 1.79636 | 24371 ft | 359 kts | 97° |
| 2026-04-23 19:07 | 51.13939 | 1.83585 | 24109 ft | 358 kts | 97° |
| 2026-04-23 19:08 | 51.13736 | 1.87529 | 23840 ft | 356 kts | 97° |
| 2026-04-23 19:08 | 51.13534 | 1.91455 | 23534 ft | 355 kts | 97° |
| 2026-04-23 19:08 | 51.13331 | 1.95356 | 23384 ft | 353 kts | 97° |
| 2026-04-23 19:08 | 51.13128 | 1.99254 | 23373 ft | 353 kts | 97° |
| 2026-04-23 19:09 | 51.12923 | 2.03106 | 23378 ft | 353 kts | 97° |
| 2026-04-23 19:09 | 51.12715 | 2.07005 | 23378 ft | 353 kts | 97° |
| 2026-04-23 19:09 | 51.12505 | 2.10907 | 23383 ft | 353 kts | 97° |
| 2026-04-23 19:09 | 51.12296 | 2.14803 | 23378 ft | 353 kts | 97° |
| 2026-04-23 19:10 | 51.12085 | 2.18700 | 23387 ft | 353 kts | 97° |
| 2026-04-23 19:10 | 51.11873 | 2.22594 | 23382 ft | 353 kts | 97° |
| 2026-04-23 19:10 | 51.11660 | 2.26496 | 23384 ft | 353 kts | 97° |
| 2026-04-23 19:10 | 51.11449 | 2.30338 | 23392 ft | 353 kts | 97° |
| 2026-04-23 19:11 | 51.11233 | 2.34234 | 23384 ft | 353 kts | 97° |
| 2026-04-23 19:11 | 51.11016 | 2.38130 | 23389 ft | 353 kts | 97° |
| 2026-04-23 19:11 | 51.10798 | 2.42030 | 23383 ft | 353 kts | 97° |
| 2026-04-23 19:11 | 51.10579 | 2.45922 | 23392 ft | 353 kts | 97° |
| 2026-04-23 19:12 | 51.10430 | 2.48552 | 23390 ft | 353 kts | 97° |
| 2026-04-23 19:12 | 51.10136 | 2.53709 | 23381 ft | 350 kts | 97° |
| 2026-04-23 19:12 | 51.09925 | 2.57437 | 23250 ft | 332 kts | 97° |
| 2026-04-23 19:12 | 51.09718 | 2.61051 | 23023 ft | 320 kts | 97° |
| 2026-04-23 19:13 | 51.09499 | 2.64511 | 22830 ft | 308 kts | 100° |
| 2026-04-23 19:13 | 51.09161 | 2.67831 | 22562 ft | 299 kts | 102° |
| 2026-04-23 19:13 | 51.08783 | 2.71058 | 22215 ft | 295 kts | 103° |
| 2026-04-23 19:13 | 51.08399 | 2.74267 | 21842 ft | 293 kts | 102° |
| 2026-04-23 19:14 | 51.08022 | 2.77441 | 21470 ft | 291 kts | 102° |
| 2026-04-23 19:14 | 51.07655 | 2.80554 | 21107 ft | 289 kts | 102° |
| 2026-04-23 19:14 | 51.07284 | 2.83715 | 20736 ft | 288 kts | 102° |
| 2026-04-23 19:14 | 51.06918 | 2.86846 | 20395 ft | 286 kts | 102° |
| 2026-04-23 19:15 | 51.06562 | 2.89918 | 20042 ft | 285 kts | 102° |
| 2026-04-23 19:15 | 51.06204 | 2.93016 | 19698 ft | 284 kts | 101° |
| 2026-04-23 19:15 | 51.05850 | 2.96101 | 19354 ft | 283 kts | 101° |
| 2026-04-23 19:15 | 51.05500 | 2.99174 | 19016 ft | 282 kts | 101° |
| 2026-04-23 19:16 | 51.05269 | 3.01207 | 18791 ft | 281 kts | 101° |
| 2026-04-23 19:16 | 51.04924 | 3.04258 | 18423 ft | 280 kts | 100° |
| 2026-04-23 19:16 | 51.04580 | 3.07310 | 18049 ft | 279 kts | 100° |
| 2026-04-23 19:17 | 51.03909 | 3.13331 | 17329 ft | 277 kts | 99° |
| 2026-04-23 19:17 | 51.03575 | 3.16349 | 16976 ft | 275 kts | 99° |
| 2026-04-23 19:17 | 51.03245 | 3.19352 | 16629 ft | 274 kts | 99° |
| 2026-04-23 19:17 | 51.02920 | 3.22329 | 16287 ft | 272 kts | 99° |
| 2026-04-23 19:18 | 51.02599 | 3.25280 | 15955 ft | 271 kts | 99° |
| 2026-04-23 19:18 | 51.02282 | 3.28222 | 15628 ft | 269 kts | 99° |
| 2026-04-23 19:18 | 51.01971 | 3.31112 | 15308 ft | 268 kts | 98° |
| 2026-04-23 19:18 | 51.01660 | 3.34027 | 14990 ft | 267 kts | 98° |
| 2026-04-23 19:19 | 51.01047 | 3.39808 | 14363 ft | 264 kts | 98° |
| 2026-04-23 19:19 | 51.00745 | 3.42688 | 14035 ft | 263 kts | 98° |
| 2026-04-23 19:20 | 51.00154 | 3.48358 | 13378 ft | 263 kts | 98° |
| 2026-04-23 19:20 | 50.99784 | 3.51203 | 13065 ft | 263 kts | 108° |
| 2026-04-23 19:20 | 50.99133 | 3.53918 | 12746 ft | 261 kts | 107° |
| 2026-04-23 19:20 | 50.98565 | 3.56646 | 12447 ft | 259 kts | 105° |
| 2026-04-23 19:21 | 50.98074 | 3.59364 | 12150 ft | 257 kts | 103° |
| 2026-04-23 19:21 | 50.97239 | 3.64844 | 11553 ft | 254 kts | 101° |
| 2026-04-23 19:21 | 50.96861 | 3.67581 | 11261 ft | 253 kts | 100° |
| 2026-04-23 19:22 | 50.96497 | 3.70296 | 10972 ft | 251 kts | 100° |
| 2026-04-23 19:22 | 50.96140 | 3.72999 | 10679 ft | 250 kts | 100° |
| 2026-04-23 19:22 | 50.95432 | 3.78404 | 10226 ft | 252 kts | 100° |
| 2026-04-23 19:23 | 50.95072 | 3.81168 | 10353 ft | 255 kts | 100° |
| 2026-04-23 19:23 | 50.94717 | 3.83858 | 10366 ft | 250 kts | 101° |
| 2026-04-23 19:23 | 50.93977 | 3.86340 | 10366 ft | 252 kts | 128° |
| 2026-04-23 19:24 | 50.90758 | 3.88234 | 10363 ft | 262 kts | 187° |
| 2026-04-23 19:24 | 50.89081 | 3.87118 | 10362 ft | 266 kts | 217° |
| 2026-04-23 19:24 | 50.87595 | 3.82009 | 10363 ft | 264 kts | 276° |
| 2026-04-23 19:25 | 50.89427 | 3.77403 | 10367 ft | 254 kts | 335° |
| 2026-04-23 19:25 | 50.92725 | 3.77519 | 10366 ft | 244 kts | 34° |
| 2026-04-23 19:26 | 50.94186 | 3.82073 | 10366 ft | 244 kts | 94° |
| 2026-04-23 19:26 | 50.93623 | 3.84607 | 10367 ft | 249 kts | 123° |
| 2026-04-23 19:27 | 50.90568 | 3.86933 | 10367 ft | 261 kts | 182° |
| 2026-04-23 19:27 | 50.87071 | 3.81192 | 10365 ft | 264 kts | 271° |
| 2026-04-23 19:28 | 50.88635 | 3.76315 | 10366 ft | 255 kts | 330° |
| 2026-04-23 19:28 | 50.91940 | 3.75931 | 10366 ft | 244 kts | 29° |
| 2026-04-23 19:29 | 50.93359 | 3.77416 | 10369 ft | 245 kts | 34° |
| 2026-04-23 19:29 | 50.96280 | 3.80248 | 10370 ft | 246 kts | 32° |
| 2026-04-23 19:30 | 50.99223 | 3.83042 | 10369 ft | 246 kts | 32° |
| 2026-04-23 19:30 | 51.00686 | 3.84450 | 10368 ft | 246 kts | 35° |
| 2026-04-23 19:30 | 51.02215 | 3.88916 | 9857 ft | 243 kts | 91° |
| 2026-04-23 19:31 | 51.01704 | 3.91486 | 9482 ft | 249 kts | 121° |
| 2026-04-23 19:31 | 51.00419 | 3.93326 | 9138 ft | 254 kts | 151° |
| 2026-04-23 19:31 | 50.98713 | 3.93973 | 8817 ft | 257 kts | 175° |
| 2026-04-23 19:31 | 50.96922 | 3.93912 | 8507 ft | 257 kts | 181° |
| 2026-04-23 19:32 | 50.95139 | 3.93728 | 8201 ft | 256 kts | 182° |
| 2026-04-23 19:32 | 50.93361 | 3.93531 | 7904 ft | 255 kts | 182° |
| 2026-04-23 19:32 | 50.91594 | 3.93338 | 7604 ft | 254 kts | 182° |
| 2026-04-23 19:32 | 50.89840 | 3.93247 | 7323 ft | 251 kts | 171° |
| 2026-04-23 19:33 | 50.88230 | 3.94150 | 7026 ft | 247 kts | 148° |
| 2026-04-23 19:33 | 50.86790 | 3.95627 | 6739 ft | 245 kts | 142° |
| 2026-04-23 19:33 | 50.84030 | 3.98714 | 6180 ft | 243 kts | 142° |
| 2026-04-23 19:34 | 50.82651 | 4.00259 | 5921 ft | 241 kts | 142° |
| 2026-04-23 19:34 | 50.81290 | 4.01784 | 5667 ft | 239 kts | 142° |
| 2026-04-23 19:34 | 50.79486 | 4.03797 | 5330 ft | 238 kts | 142° |
| 2026-04-23 19:35 | 50.78880 | 4.04473 | 5221 ft | 238 kts | 142° |
| 2026-04-23 19:35 | 50.77529 | 4.05978 | 4954 ft | 237 kts | 142° |
| 2026-04-23 19:35 | 50.76186 | 4.07467 | 4698 ft | 236 kts | 142° |
| 2026-04-23 19:35 | 50.74845 | 4.08951 | 4439 ft | 234 kts | 142° |
| 2026-04-23 19:36 | 50.73507 | 4.10426 | 4181 ft | 233 kts | 142° |
| 2026-04-23 19:36 | 50.72179 | 4.11889 | 4019 ft | 232 kts | 142° |
| 2026-04-23 19:36 | 50.70932 | 4.13428 | 4000 ft | 229 kts | 128° |
| 2026-04-23 19:36 | 50.70194 | 4.15594 | 4009 ft | 224 kts | 107° |
| 2026-04-23 19:37 | 50.69751 | 4.17967 | 4007 ft | 225 kts | 103° |
| 2026-04-23 19:37 | 50.69353 | 4.20353 | 4009 ft | 225 kts | 102° |
| 2026-04-23 19:37 | 50.68965 | 4.22739 | 4008 ft | 225 kts | 102° |
| 2026-04-23 19:37 | 50.68581 | 4.25124 | 3997 ft | 225 kts | 102° |
| 2026-04-23 19:38 | 50.68194 | 4.27499 | 3999 ft | 225 kts | 102° |
| 2026-04-23 19:38 | 50.67814 | 4.29820 | 3980 ft | 207 kts | 102° |
| 2026-04-23 19:38 | 50.67464 | 4.31929 | 3981 ft | 191 kts | 102° |
| 2026-04-23 19:38 | 50.67130 | 4.33914 | 3988 ft | 185 kts | 102° |
| 2026-04-23 19:39 | 50.66799 | 4.35881 | 3991 ft | 184 kts | 102° |
| 2026-04-23 19:39 | 50.66475 | 4.37813 | 3997 ft | 183 kts | 102° |
| 2026-04-23 19:39 | 50.66401 | 4.39775 | 3984 ft | 178 kts | 71° |
| 2026-04-23 19:39 | 50.67114 | 4.41308 | 3869 ft | 176 kts | 32° |
| 2026-04-23 19:40 | 50.68298 | 4.41723 | 3627 ft | 183 kts | 359° |
| 2026-04-23 19:40 | 50.69569 | 4.41684 | 3426 ft | 182 kts | 5° |
| 2026-04-23 19:40 | 50.70822 | 4.41909 | 3218 ft | 180 kts | 13° |
| 2026-04-23 19:40 | 50.72042 | 4.42355 | 3045 ft | 179 kts | 17° |
| 2026-04-23 19:41 | 50.73248 | 4.42850 | 3013 ft | 179 kts | 17° |
| 2026-04-23 19:41 | 50.74438 | 4.43336 | 3021 ft | 179 kts | 17° |
| 2026-04-23 19:41 | 50.75649 | 4.43823 | 2932 ft | 179 kts | 16° |
| 2026-04-23 19:41 | 50.76859 | 4.44308 | 2685 ft | 178 kts | 17° |
| 2026-04-23 19:42 | 50.78041 | 4.44789 | 2430 ft | 176 kts | 17° |
| 2026-04-23 19:42 | 50.79226 | 4.45273 | 2188 ft | 174 kts | 17° |
| 2026-04-23 19:42 | 50.80401 | 4.45752 | 1954 ft | 173 kts | 16° |
| 2026-04-23 19:42 | 50.81560 | 4.46224 | 1714 ft | 172 kts | 16° |
| 2026-04-23 19:43 | 50.82713 | 4.46695 | 1473 ft | 170 kts | 16° |
| 2026-04-23 19:43 | 50.83814 | 4.47143 | 1252 ft | 152 kts | 16° |
| 2026-04-23 19:43 | 50.84753 | 4.47526 | 1067 ft | 133 kts | 16° |
| 2026-04-23 19:43 | 50.85633 | 4.47881 | 850 ft | 129 kts | 15° |
| 2026-04-23 19:44 | 50.86510 | 4.48218 | 677 ft | 131 kts | 15° |
| 2026-04-23 19:44 | 50.87391 | 4.48602 | 520 ft | 130 kts | 15° |
| 2026-04-23 19:44 | 50.88266 | 4.48964 | 332 ft | 129 kts | 15° |
| 2026-04-23 19:44 | 50.89132 | 4.49321 | 200 ft | 129 kts | 15° |
| 2026-04-23 19:45 | 50.89856 | 4.49617 | 150 ft | 64 kts | 14° |
| 2026-04-23 19:45 | 50.90149 | 4.49711 | 140 ft | 32 kts | 1° |
| 2026-04-23 19:45 | 50.90330 | 4.49660 | 136 ft | 21 kts | 346° |
| 2026-04-23 19:45 | 50.90375 | 4.49641 | 132 ft | 0 kts | 345° |
| 2026-04-23 19:46 | 50.90382 | 4.49638 | 131 ft | 4 kts | 345° |
| 2026-04-23 19:46 | 50.90431 | 4.49617 | 134 ft | 10 kts | 345° |
| 2026-04-23 19:46 | 50.90512 | 4.49616 | 128 ft | 13 kts | 14° |
| 2026-04-23 19:46 | 50.90607 | 4.49655 | 128 ft | 15 kts | 14° |
| 2026-04-23 19:47 | 50.90678 | 4.49684 | 130 ft | 16 kts | 14° |
| 2026-04-23 19:47 | 50.90743 | 4.49710 | 129 ft | 0 kts | 14° |
| 2026-04-23 19:48 | 50.90744 | 4.49710 | 129 ft | 0 kts | 14° |
| 2026-04-23 19:49 | 50.90768 | 4.49720 | 133 ft | 6 kts | 13° |
| 2026-04-23 19:49 | 50.90812 | 4.49738 | 131 ft | 9 kts | 14° |
| 2026-04-23 19:49 | 50.90886 | 4.49740 | 127 ft | 12 kts | 325° |
| 2026-04-23 19:49 | 50.90877 | 4.49605 | 131 ft | 16 kts | 246° |
| 2026-04-23 19:50 | 50.90823 | 4.49416 | 127 ft | 22 kts | 246° |
| 2026-04-23 19:50 | 50.90753 | 4.49175 | 128 ft | 26 kts | 245° |
| 2026-04-23 19:50 | 50.90684 | 4.48933 | 127 ft | 26 kts | 245° |
| 2026-04-23 19:50 | 50.90607 | 4.48665 | 126 ft | 27 kts | 245° |
| 2026-04-23 19:51 | 50.90589 | 4.48484 | 129 ft | 9 kts | 298° |
| 2026-04-23 19:51 | 50.90591 | 4.48478 | 129 ft | 0 kts | 300° |
| 2026-04-23 19:57 | 50.90594 | 4.48469 | 130 ft | 5 kts | 300° |
| 2026-04-23 19:57 | 50.90613 | 4.48418 | 127 ft | 11 kts | 300° |
| 2026-04-23 19:57 | 50.90691 | 4.48230 | 129 ft | 18 kts | 322° |
| 2026-04-23 19:58 | 50.90812 | 4.48160 | 125 ft | 20 kts | 346° |
| 2026-04-23 19:58 | 50.90910 | 4.48271 | 125 ft | 20 kts | 59° |
| 2026-04-23 19:58 | 50.90984 | 4.48469 | 125 ft | 22 kts | 59° |
| 2026-04-23 19:58 | 50.91066 | 4.48685 | 128 ft | 24 kts | 59° |
| 2026-04-23 19:59 | 50.91123 | 4.48837 | 126 ft | 24 kts | 60° |
| 2026-04-23 19:59 | 50.91186 | 4.48930 | 129 ft | 7 kts | 324° |
| 2026-04-23 19:59 | 50.91237 | 4.48907 | 128 ft | 9 kts | 19° |
| 2026-04-23 19:59 | 50.91284 | 4.49004 | 124 ft | 14 kts | 58° |
| 2026-04-23 20:00 | 50.91310 | 4.49118 | 129 ft | 10 kts | 109° |
| 2026-04-23 20:00 | 50.91291 | 4.49145 | 124 ft | 0 kts | 149° |